• Join FlightAware (Why Join?)
  • Login
  • US Flag 
04:56AM EDT


 

Airport Tracker/Info


-or-


 

Live Flight TrackerFlight Track Log ✈ MSR2491 ✈ 06-Jul-2013 ✈ OBBI / BAH - HECA / CAI

Flight Track Log - Related Links

Times and Time Zones

All times are in EDT time to prevent confusion due to time zone crossing. See the MSR2491 flight status page for this flight to view local times or setup timezone preferences in your user account.

Time Position Orientation Groundspeed Altitude Reporting Facility
EDT Latitude Longitude Course Direction KTS MPH feet Rate Location/Type
07:13PM 26.2700 50.6310 123° Southeast 12 14  Level FlightAware
07:13PM 26.2700 50.6320 90° East 14 16 60 Level FlightAware
07:13PM 26.2680 50.6340 138° Southeast 21 24 60 Level FlightAware
07:15PM 26.2630 50.6430 122° Southeast 26 30 120 Level FlightAware
07:15PM 26.2620 50.6460 110° East 26 30 180 Level FlightAware
07:16PM 26.2610 50.6500 106° East 5 6 240 Level FlightAware
07:17PM 26.2690 50.6370 304° West 145 167 480 Level FlightAware
07:17PM 26.2720 50.6310 299° West 145 167 500 3,060 Climbing FlightAware
07:18PM 26.2850 50.6100 305° West 157 181 1,900 1,440 Climbing FlightAware
07:18PM 26.2930 50.5930 298° West 157 181 1,900 1,440 Level FlightAware
07:19PM 26.3120 50.5170 286° West 197 227 4,400 1,740 Climbing FlightAware
07:20PM 26.3150 50.4770 275° West 294 338 4,800 420 Climbing FlightAware
07:20PM 26.3160 50.4430 272° West 294 338 4,800 2,040 Level FlightAware
07:21PM 26.3260 50.3800 280° West 328 377 6,900 3,180 Climbing FlightAware
07:21PM 26.3320 50.3380 279° West 331 381 8,000 1,260 Climbing FlightAware
07:22PM 26.3370 50.2990 278° West 331 381 8,000 2,400 Level FlightAware
07:22PM 26.3490 50.2260 280° West 343 395 10,600 3,000 Climbing FlightAware
07:24PM 26.3700 50.0930 280° West 365 420 13,400 1,860 Climbing FlightAware
07:24PM 26.3810 50.0070 278° West 372 428 14,400 2,160 Climbing FlightAware
07:25PM 26.3950 49.9220 280° West 398 458 16,700 1,740 Climbing FlightAware
07:26PM 26.4050 49.8550 279° West 398 458 16,700 180 Level FlightAware
07:26PM 26.4200 49.7530 279° West 19,900 180 Climbing FlightAware
07:29PM 26.4870 49.5099 287° West  Level Estimated
07:30PM 26.5188 49.3941 287° West  Level Estimated
07:31PM 26.5505 49.2782 287° West  Level Estimated
07:32PM 26.5821 49.1622 287° West  Level Estimated
07:33PM 26.6135 49.0462 287° West  Level Estimated
07:34PM 26.6449 48.9300 287° West  Level Estimated
07:35PM 26.6762 48.8139 287° West  Level Estimated
07:36PM 26.7074 48.6977 287° West  Level Estimated
07:37PM 26.7385 48.5813 287° West  Level Estimated
07:38PM 26.7696 48.4650 287° West  Level Estimated
07:39PM 26.8005 48.3486 287° West  Level Estimated
07:40PM 26.8313 48.2321 287° West  Level Estimated
07:41PM 26.8620 48.1155 286° West  Level Estimated
07:42PM 26.8927 47.9989 286° West  Level Estimated
07:43PM 26.9232 47.8822 286° West  Level Estimated
07:44PM 26.9536 47.7655 286° West  Level Estimated
07:45PM 26.9840 47.6487 286° West  Level Estimated
07:46PM 27.0142 47.5318 286° West  Level Estimated
07:47PM 27.0444 47.4149 286° West  Level Estimated
07:48PM 27.0744 47.2979 286° West  Level Estimated
07:49PM 27.1044 47.1809 286° West  Level Estimated
07:50PM 27.1343 47.0638 286° West  Level Estimated
07:51PM 27.1640 46.9466 286° West  Level Estimated
07:52PM 27.1937 46.8293 286° West  Level Estimated
07:53PM 27.2233 46.7120 286° West  Level Estimated
07:54PM 27.2528 46.5947 286° West  Level Estimated
07:55PM 27.2821 46.4772 286° West  Level Estimated
07:56PM 27.3114 46.3597 286° West  Level Estimated
07:57PM 27.3406 46.2422 286° West  Level Estimated
07:58PM 27.3697 46.1246 286° West  Level Estimated
07:59PM 27.3986 46.0069 286° West  Level Estimated
08:00PM 27.4275 45.8892 285° West  Level Estimated
08:01PM 27.4563 45.7714 285° West  Level Estimated
08:02PM 27.4850 45.6535 285° West  Level Estimated
08:03PM 27.5136 45.5356 285° West  Level Estimated
08:04PM 27.5420 45.4176 285° West  Level Estimated
08:05PM 27.5704 45.2996 285° West  Level Estimated
08:06PM 27.5987 45.1815 285° West  Level Estimated
08:07PM 27.6269 45.0633 285° West  Level Estimated
08:08PM 27.6550 44.9451 285° West  Level Estimated
08:09PM 27.6830 44.8268 285° West  Level Estimated
08:10PM 27.7109 44.7085 285° West  Level Estimated
08:11PM 27.7387 44.5900 285° West  Level Estimated
08:12PM 27.7663 44.4716 285° West  Level Estimated
08:13PM 27.7939 44.3531 285° West  Level Estimated
08:14PM 27.8214 44.2345 285° West  Level Estimated
08:15PM 27.8488 44.1158 285° West  Level Estimated
08:16PM 27.8761 43.9971 285° West  Level Estimated
08:17PM 27.9032 43.8783 285° West  Level Estimated
08:18PM 27.9303 43.7595 284° West  Level Estimated
08:19PM 27.9573 43.6406 284° West  Level Estimated
08:20PM 27.9841 43.5217 284° West  Level Estimated
08:21PM 28.0109 43.4027 284° West  Level Estimated
08:22PM 28.0376 43.2836 284° West  Level Estimated
08:23PM 28.0641 43.1645 284° West  Level Estimated
08:24PM 28.0906 43.0453 284° West  Level Estimated
08:25PM 28.1170 42.9261 284° West  Level Estimated
08:26PM 28.1432 42.8068 284° West  Level Estimated
08:27PM 28.1694 42.6874 284° West  Level Estimated
08:28PM 28.1954 42.5680 284° West  Level Estimated
08:29PM 28.2214 42.4485 284° West  Level Estimated
08:30PM 28.2472 42.3290 284° West  Level Estimated
08:31PM 28.2729 42.2094 284° West  Level Estimated
08:32PM 28.2986 42.0898 284° West  Level Estimated
08:33PM 28.3241 41.9701 284° West  Level Estimated
08:34PM 28.3495 41.8503 284° West  Level Estimated
08:35PM 28.3748 41.7305 284° West  Level Estimated
08:36PM 28.4000 41.6106 283° West  Level Estimated
08:37PM 28.4252 41.4907 283° West  Level Estimated
08:38PM 28.4502 41.3707 283° West  Level Estimated
08:39PM 28.4751 41.2506 283° West  Level Estimated
08:40PM 28.4998 41.1305 283° West  Level Estimated
08:41PM 28.5245 41.0104 283° West  Level Estimated
08:42PM 28.5491 40.8902 283° West  Level Estimated
08:43PM 28.5736 40.7699 283° West  Level Estimated
08:44PM 28.5980 40.6496 283° West  Level Estimated
08:45PM 28.6222 40.5292 283° West  Level Estimated
08:46PM 28.6464 40.4087 283° West  Level Estimated
08:47PM 28.6704 40.2882 283° West  Level Estimated
08:48PM 28.6944 40.1677 283° West  Level Estimated
08:49PM 28.7182 40.0471 283° West  Level Estimated
08:50PM 28.7419 39.9264 283° West  Level Estimated
08:51PM 28.7656 39.8057 283° West  Level Estimated
08:52PM 28.7891 39.6850 283° West  Level Estimated
08:53PM 28.8125 39.5641 282° West  Level Estimated
08:54PM 28.8358 39.4433 282° West  Level Estimated
08:55PM 28.8590 39.3223 282° West  Level Estimated
08:56PM 28.8820 39.2014 282° West  Level Estimated
08:57PM 28.9050 39.0803 282° West  Level Estimated
08:58PM 28.9279 38.9592 282° West  Level Estimated
08:59PM 28.9507 38.8381 282° West  Level Estimated
08:59PM 28.8440 36.1760 282° West 471 542 34,000  Level FlightAware
09:00PM 28.9733 38.7169 282° West  Level Estimated
09:00PM 28.8560 36.0900 279° West 471 542 34,000  Level FlightAware
09:00PM 28.8690 35.9940 279° West 471 542 34,000  Level FlightAware
09:01PM 28.8800 35.9190 280° West 471 542 34,000  Level FlightAware
09:02PM 28.8930 35.8180 278° West 471 542 34,000  Level FlightAware
09:02PM 28.9040 35.7430 280° West 471 542 34,000  Level FlightAware
09:03PM 28.9180 35.6430 279° West 471 542 34,000  Level FlightAware
09:04PM 28.9280 35.5670 279° West 471 542 34,000  Level FlightAware
09:05PM 28.9450 35.4420 279° West 471 542 34,000  Level FlightAware
09:05PM 28.9560 35.3670 280° West 471 542 34,000  Level FlightAware
09:06PM 28.9690 35.2710 279° West 471 542 34,000  Level FlightAware
09:07PM 28.9870 35.1450 279° West 471 542 34,000  Level FlightAware
09:08PM 28.9970 35.0700 279° West 471 542 34,000  Level FlightAware
09:09PM 29.0110 34.9690 279° West 471 542 34,000  Level FlightAware
09:11PM 29.0820 34.7522 291° West  Level Estimated
09:12PM 29.1199 34.6359 290° West  Level Estimated
09:13PM 29.1577 34.5196 290° West  Level Estimated
09:14PM 29.1954 34.4031 290° West  Level Estimated
09:15PM 29.2330 34.2866 290° West  Level Estimated
09:16PM 29.2705 34.1700 290° West  Level Estimated
09:17PM 29.3079 34.0533 290° West  Level Estimated
09:18PM 29.3452 33.9365 290° West  Level Estimated
09:19PM 29.3824 33.8196 290° West  Level Estimated
09:20PM 29.4195 33.7027 290° West  Level Estimated
09:21PM 29.4565 33.5856 290° West  Level Estimated
09:22PM 29.4934 33.4685 290° West  Level Estimated
09:23PM 29.5302 33.3513 290° West  Level Estimated
09:24PM 29.5668 33.2340 290° West  Level Estimated
09:25PM 29.6034 33.1166 290° West  Level Estimated
09:26PM 29.6399 32.9992 290° West  Level Estimated
09:27PM 29.6763 32.8816 290° West  Level Estimated
09:28PM 29.7125 32.7640 290° West  Level Estimated
09:29PM 29.7487 32.6463 290° West  Level Estimated
09:30PM 29.7848 32.5285 289° West  Level Estimated
09:31PM 29.8207 32.4106 289° West  Level Estimated
09:32PM 29.8566 32.2926 289° West  Level Estimated
09:33PM 29.8923 32.1745 289° West  Level Estimated
09:34PM 29.9279 32.0564 289° West  Level Estimated
09:35PM 29.9635 31.9382 289° West  Level Estimated
09:36PM 29.9989 31.8199 289° West  Level Estimated
09:37PM 30.0342 31.7015 289° West  Level Estimated
09:38PM 30.0695 31.5830 289° West  Level Estimated
09:39PM 30.1046 31.4644 289° West  Level Estimated
09:40PM 30.1219 31.4056 289° West  Level Estimated
09:41PM 30.1219 31.4056 319° Northwest  Level Estimated
09:42PM 30.1219 31.4056 319° Northwest  Level Estimated
09:43PM 30.1219 31.4056 319° Northwest  Level Estimated
09:44PM 30.1219 31.4056 319° Northwest  Level Estimated
09:45PM 30.1219 31.4056 319° Northwest  Level Estimated
09:46PM 30.1219 31.4056 319° Northwest  Level Estimated
09:47PM 30.1219 31.4056 319° Northwest  Level Estimated
09:48PM 30.1219 31.4056 319° Northwest  Level Estimated
09:49PM 30.1219 31.4056 319° Northwest  Level Estimated
09:50PM 30.1219 31.4056 319° Northwest  Level Estimated
09:51PM 30.1219 31.4056 319° Northwest  Level Estimated
09:52PM 30.1219 31.4056 319° Northwest  Level Estimated
09:53PM 30.1219 31.4056 319° Northwest  Level Estimated
09:54PM 30.1219 31.4056 319° Northwest  Level Estimated
09:55PM 30.1219 31.4056 319° Northwest  Level Estimated
09:56PM 30.1219 31.4056 319° Northwest  Level Estimated
09:57PM 30.1219 31.4056 319° Northwest  Level Estimated
09:58PM 30.1219 31.4056 319° Northwest  Level Estimated
09:59PM 30.1219 31.4056 319° Northwest  Level Estimated
10:00PM 30.1219 31.4056 319° Northwest  Level Estimated
10:01PM 30.1219 31.4056 319° Northwest  Level Estimated
10:02PM 30.1219 31.4056 319° Northwest  Level Estimated
10:03PM 30.1219 31.4056 319° Northwest  Level Estimated
10:04PM 30.1219 31.4056 319° Northwest  Level Estimated
10:05PM 30.1219 31.4056 319° Northwest  Level Estimated
10:06PM 30.1219 31.4056 319° Northwest  Level Estimated
10:07PM 30.1219 31.4056 319° Northwest  Level Estimated
10:08PM 30.1219 31.4056 319° Northwest  Level Estimated
10:09PM 30.1219 31.4056 319° Northwest  Level Estimated